createdAt,value
2022-08-05T00:02:17.065Z,101865.00
2022-08-05T00:04:55.498Z,101861.00
2022-08-05T00:07:59.969Z,101858.00
2022-08-05T00:10:06.443Z,101859.00
2022-08-05T00:12:55.817Z,101852.00
2022-08-05T00:15:56.383Z,101850.00
2022-08-05T00:17:49.169Z,101842.00
2022-08-05T00:20:23.388Z,101849.00
2022-08-05T00:23:02.238Z,101836.00
2022-08-05T00:25:45.738Z,101836.00
2022-08-05T00:28:05.969Z,101829.00
2022-08-05T00:30:38.913Z,101833.00
2022-08-05T00:33:15.504Z,101842.00
2022-08-05T00:35:47.994Z,101832.00
2022-08-05T00:38:28.810Z,101825.00
2022-08-05T00:40:58.252Z,101805.00
2022-08-05T00:43:46.635Z,101804.00
2022-08-05T00:46:07.476Z,101802.00
2022-08-05T00:48:50.388Z,101797.00
2022-08-05T00:51:50.873Z,101802.00
2022-08-05T00:54:02.407Z,101795.00
2022-08-05T00:56:23.123Z,101791.00
2022-08-05T00:58:56.726Z,101795.00
2022-08-05T01:01:48.492Z,101802.00
2022-08-05T01:04:13.941Z,101797.00
2022-08-05T01:06:39.075Z,101787.00
2022-08-05T01:09:13.141Z,101790.00
2022-08-05T01:11:47.354Z,101776.00
2022-08-05T01:14:32.732Z,101775.00
2022-08-05T01:17:13.322Z,101756.00
2022-08-05T01:20:01.317Z,101752.00
2022-08-05T01:22:49.721Z,101742.00
2022-08-05T01:25:40.210Z,101739.00
2022-08-05T01:28:21.887Z,101733.00
2022-08-05T01:31:03.152Z,101740.00
2022-08-05T01:36:30.934Z,101737.00
2022-08-05T01:39:04.320Z,101736.00
2022-08-05T01:41:38.938Z,101731.00
2022-08-05T01:44:15.261Z,101722.00
2022-08-05T01:46:49.222Z,101725.00
2022-08-05T01:49:25.605Z,101717.00
2022-08-05T01:52:01.550Z,101725.00
2022-08-05T01:54:46.251Z,101726.00
2022-08-05T01:58:11.867Z,101717.00
2022-08-05T01:59:49.689Z,101715.00
2022-08-05T02:02:26.268Z,101724.00
2022-08-05T02:05:01.300Z,101725.00
2022-08-05T02:07:37.367Z,101726.00
2022-08-05T02:10:12.613Z,101720.00
2022-08-05T02:13:15.768Z,101711.00
2022-08-05T02:15:49.702Z,101712.00
2022-08-05T02:18:34.270Z,101722.00
2022-08-05T02:21:17.553Z,101730.00
2022-08-05T02:24:01.776Z,101715.00
2022-08-05T02:26:51.915Z,101714.00
2022-08-05T02:29:58.226Z,101702.00
2022-08-05T02:32:04.787Z,101690.00
2022-08-05T02:34:37.643Z,101682.00
2022-08-05T02:37:13.374Z,101687.00
2022-08-05T02:39:47.640Z,101685.00
2022-08-05T02:42:26.106Z,101685.00
2022-08-05T02:44:56.269Z,101689.00
2022-08-05T02:48:07.476Z,101698.00
2022-08-05T02:50:06.297Z,101680.00
2022-08-05T02:52:40.571Z,101678.00
2022-08-05T02:55:14.940Z,101686.00
2022-08-05T02:58:11.475Z,101676.00
2022-08-05T03:00:25.414Z,101685.00
2022-08-05T03:02:59.760Z,101679.00
2022-08-05T03:06:54.335Z,101673.00
2022-08-05T03:08:12.244Z,101659.00
2022-08-05T03:11:54.000Z,101650.00
2022-08-05T03:13:27.555Z,101649.00
2022-08-05T03:15:57.399Z,101638.00
2022-08-05T03:18:31.206Z,101639.00
2022-08-05T03:21:04.294Z,101637.00
2022-08-05T03:23:39.630Z,101636.00
2022-08-05T03:26:32.023Z,101624.00
2022-08-05T03:28:47.126Z,101624.00
2022-08-05T03:31:55.937Z,101624.00
2022-08-05T03:33:55.356Z,101613.00
2022-08-05T03:36:32.960Z,101612.00
2022-08-05T03:39:19.793Z,101607.00
2022-08-05T03:41:47.050Z,101603.00
2022-08-05T03:44:20.564Z,101594.00
2022-08-05T03:46:53.423Z,101589.00
2022-08-05T03:49:31.009Z,101587.00
2022-08-05T03:52:38.840Z,101583.00
2022-08-05T03:55:50.220Z,101566.00
2022-08-05T03:57:28.999Z,101553.00
2022-08-05T04:00:01.757Z,101548.00
2022-08-05T04:02:39.008Z,101552.00
2022-08-05T04:05:13.697Z,101557.00
2022-08-05T04:07:57.910Z,101547.00
2022-08-05T04:10:21.735Z,101548.00
2022-08-05T04:12:54.960Z,101549.00
2022-08-05T04:15:32.866Z,101547.00
2022-08-05T04:18:03.305Z,101552.00
2022-08-05T04:20:36.424Z,101555.00
2022-08-05T04:23:12.654Z,101549.00
2022-08-05T04:26:00.705Z,101544.00
2022-08-05T04:28:30.974Z,101552.00
2022-08-05T04:30:56.560Z,101559.00
2022-08-05T04:34:17.871Z,101564.00
2022-08-05T04:36:10.989Z,101545.00
2022-08-05T04:38:40.281Z,101524.00
2022-08-05T04:41:14.387Z,101518.00
2022-08-05T04:43:48.288Z,101519.00
2022-08-05T04:46:28.512Z,101535.00
2022-08-05T04:48:57.972Z,101534.00
2022-08-05T04:51:30.325Z,101540.00
2022-08-05T04:54:03.897Z,101529.00
2022-08-05T04:56:37.971Z,101530.00
2022-08-05T04:59:21.824Z,101535.00
2022-08-05T05:02:06.874Z,101536.00
2022-08-05T05:04:19.485Z,101543.00
2022-08-05T05:06:57.623Z,101539.00
2022-08-05T05:09:26.924Z,101535.00
2022-08-05T05:12:02.993Z,101532.00
2022-08-05T05:14:33.794Z,101525.00
2022-08-05T05:17:09.551Z,101521.00
2022-08-05T05:19:44.402Z,101518.00
2022-08-05T05:22:23.796Z,101515.00
2022-08-05T05:24:58.839Z,101513.00
2022-08-05T05:27:41.361Z,101515.00
2022-08-05T05:30:05.300Z,101513.00
2022-08-05T05:32:38.567Z,101513.00
2022-08-05T05:35:13.279Z,101516.00
2022-08-05T05:37:59.413Z,101518.00
2022-08-05T05:40:34.349Z,101502.00
2022-08-05T05:43:08.569Z,101499.00
2022-08-05T05:45:48.381Z,101498.00
2022-08-05T05:48:18.420Z,101507.00
2022-08-05T05:50:53.906Z,101501.00
2022-08-05T05:53:27.290Z,101501.00
2022-08-05T05:56:03.062Z,101508.00
2022-08-05T05:58:38.124Z,101507.00
2022-08-05T06:01:16.647Z,101487.00
2022-08-05T06:04:01.138Z,101491.00
2022-08-05T06:06:27.740Z,101486.00
2022-08-05T06:08:58.634Z,101478.00
2022-08-05T06:11:31.653Z,101479.00
2022-08-05T06:14:04.856Z,101479.00
2022-08-05T06:16:37.947Z,101483.00
2022-08-05T06:19:14.940Z,101480.00
2022-08-05T06:21:49.252Z,101483.00
2022-08-05T06:24:27.197Z,101486.00
2022-08-05T06:26:57.443Z,101471.00
2022-08-05T06:29:46.891Z,101478.00
2022-08-05T06:32:04.949Z,101492.00
2022-08-05T06:34:39.015Z,101494.00
2022-08-05T06:37:12.997Z,101494.00
2022-08-05T06:39:46.402Z,101492.00
2022-08-05T06:42:19.290Z,101492.00
2022-08-05T06:44:51.749Z,101490.00
2022-08-05T06:48:11.304Z,101488.00
2022-08-05T06:50:01.239Z,101481.00
2022-08-05T06:52:37.816Z,101483.00
2022-08-05T06:55:06.656Z,101494.00
2022-08-05T06:58:03.375Z,101486.00
2022-08-05T07:00:14.305Z,101484.00
2022-08-05T07:02:54.001Z,101494.00
2022-08-05T07:05:37.267Z,101498.00
2022-08-05T07:08:00.277Z,101494.00
2022-08-05T07:10:34.473Z,101483.00
2022-08-05T07:13:56.613Z,101486.00
2022-08-05T07:16:06.298Z,101487.00
2022-08-05T07:18:47.941Z,101484.00
2022-08-05T07:21:25.785Z,101488.00
2022-08-05T07:23:54.733Z,101491.00
2022-08-05T07:26:33.807Z,101489.00
2022-08-05T07:29:08.451Z,101483.00
2022-08-05T07:31:54.879Z,101474.00
2022-08-05T07:34:28.455Z,101477.00
2022-08-05T07:36:57.377Z,101487.00
2022-08-05T07:40:04.770Z,101494.00
2022-08-05T07:42:13.252Z,101489.00
2022-08-05T07:44:38.568Z,101495.00
2022-08-05T07:47:13.451Z,101499.00
2022-08-05T07:49:54.281Z,101498.00
2022-08-05T07:52:20.875Z,101503.00
2022-08-05T07:54:55.017Z,101505.00
2022-08-05T07:57:57.412Z,101506.00
2022-08-05T08:00:02.445Z,101499.00
2022-08-05T08:03:15.016Z,101489.00
2022-08-05T08:05:09.577Z,101494.00
2022-08-05T08:07:59.026Z,101484.00
2022-08-05T08:10:21.937Z,101488.00
2022-08-05T08:12:55.009Z,101472.00
2022-08-05T08:16:35.675Z,101470.00
2022-08-05T08:18:05.940Z,101483.00
2022-08-05T08:20:45.328Z,101489.00
2022-08-05T08:24:02.938Z,101489.00
2022-08-05T08:26:00.520Z,101494.00
2022-08-05T08:28:36.259Z,101491.00
2022-08-05T08:30:58.181Z,101495.00
2022-08-05T08:33:37.645Z,101489.00
2022-08-05T08:36:38.733Z,101500.00
2022-08-05T08:38:43.523Z,101499.00
2022-08-05T08:41:19.079Z,101498.00
2022-08-05T08:45:23.067Z,101502.00
2022-08-05T08:46:29.874Z,101495.00
2022-08-05T08:50:11.319Z,101497.00
2022-08-05T08:52:02.900Z,101491.00
2022-08-05T08:54:15.553Z,101496.00
2022-08-05T08:56:52.308Z,101487.00
2022-08-05T08:59:33.395Z,101484.00
2022-08-05T09:02:06.021Z,101489.00
2022-08-05T09:04:58.634Z,101497.00
2022-08-05T09:07:28.943Z,101492.00
2022-08-05T09:09:54.127Z,101490.00
2022-08-05T09:12:27.356Z,101495.00
2022-08-05T09:15:05.619Z,101497.00
2022-08-05T09:17:42.238Z,101491.00
2022-08-05T09:20:10.371Z,101497.00
2022-08-05T09:23:09.125Z,101494.00
2022-08-05T09:26:01.205Z,101491.00
2022-08-05T09:28:24.054Z,101491.00
2022-08-05T09:31:02.728Z,101488.00
2022-08-05T09:33:38.225Z,101494.00
2022-08-05T09:36:16.690Z,101493.00
2022-08-05T09:39:00.529Z,101476.00
2022-08-05T09:41:39.063Z,101476.00
2022-08-05T09:44:09.249Z,101474.00
2022-08-05T09:46:53.584Z,101470.00
2022-08-05T09:49:19.858Z,101461.00
2022-08-05T09:51:53.180Z,101454.00
2022-08-05T09:54:29.603Z,101455.00
2022-08-05T09:57:06.476Z,101442.00
2022-08-05T09:59:40.638Z,101432.00
2022-08-05T10:02:15.181Z,101424.00
2022-08-05T10:04:50.286Z,101426.00
2022-08-05T10:08:11.119Z,101418.00
2022-08-05T10:10:14.166Z,101415.00
2022-08-05T10:12:40.859Z,101411.00
2022-08-05T10:15:34.110Z,101403.00
2022-08-05T10:18:19.373Z,101408.00
2022-08-05T10:20:55.426Z,101409.00
2022-08-05T10:23:56.174Z,101398.00
2022-08-05T10:26:07.131Z,101394.00
2022-08-05T10:28:40.187Z,101388.00
2022-08-05T10:32:49.649Z,101387.00
2022-08-05T10:33:52.240Z,101400.00
2022-08-05T10:36:26.016Z,101400.00
2022-08-05T10:39:11.634Z,101402.00
2022-08-05T10:41:46.801Z,101396.00
2022-08-05T10:44:16.929Z,101399.00
2022-08-05T10:46:54.988Z,101398.00
2022-08-05T10:49:33.244Z,101396.00
2022-08-05T10:52:10.341Z,101400.00
2022-08-05T10:54:56.272Z,101386.00
2022-08-05T10:57:33.842Z,101381.00
2022-08-05T11:00:23.647Z,101369.00
2022-08-05T11:03:25.314Z,101368.00
2022-08-05T11:05:53.449Z,101376.00
2022-08-05T11:08:37.298Z,101374.00
2022-08-05T11:11:09.721Z,101359.00
2022-08-05T11:13:57.868Z,101364.00
2022-08-05T11:16:33.858Z,101358.00
2022-08-05T11:20:17.609Z,101363.00
2022-08-05T11:22:25.974Z,101359.00
2022-08-05T11:26:04.816Z,101369.00
2022-08-05T11:28:19.850Z,101373.00
2022-08-05T11:31:06.434Z,101371.00
2022-08-05T11:33:46.016Z,101375.00
2022-08-05T11:36:15.844Z,101378.00
2022-08-05T11:38:53.000Z,101379.00
2022-08-05T11:41:58.231Z,101379.00
2022-08-05T11:44:40.834Z,101366.00
2022-08-05T11:46:58.432Z,101367.00
2022-08-05T11:49:28.318Z,101374.00
2022-08-05T11:52:01.256Z,101375.00
2022-08-05T11:54:36.514Z,101376.00
2022-08-05T11:57:25.530Z,101372.00
2022-08-05T11:59:50.284Z,101377.00
2022-08-05T12:02:30.524Z,101378.00
2022-08-05T12:04:59.537Z,101368.00
2022-08-05T12:08:10.329Z,101374.00
2022-08-05T12:10:09.556Z,101373.00
2022-08-05T12:12:38.717Z,101372.00
2022-08-05T12:15:16.770Z,101373.00
2022-08-05T12:18:03.911Z,101359.00
2022-08-05T12:20:28.669Z,101352.00
2022-08-05T12:23:04.998Z,101344.00
2022-08-05T12:25:40.292Z,101336.00
2022-08-05T12:28:15.753Z,101346.00
2022-08-05T12:30:49.707Z,101334.00
2022-08-05T12:33:27.283Z,101327.00
2022-08-05T12:35:59.674Z,101322.00
2022-08-05T12:38:32.687Z,101327.00
2022-08-05T12:41:12.501Z,101309.00
2022-08-05T12:43:41.752Z,101306.00
2022-08-05T12:46:17.705Z,101312.00
2022-08-05T12:48:53.264Z,101299.00
2022-08-05T12:52:14.113Z,101298.00
2022-08-05T12:54:14.853Z,101318.00
2022-08-05T12:56:48.780Z,101318.00
2022-08-05T12:59:46.907Z,101325.00
2022-08-05T13:02:13.085Z,101330.00
2022-08-05T13:04:54.491Z,101328.00
2022-08-05T13:07:47.824Z,101334.00
2022-08-05T13:10:01.021Z,101332.00
2022-08-05T13:12:34.100Z,101346.00
2022-08-05T13:15:12.334Z,101334.00
2022-08-05T13:17:42.865Z,101338.00
2022-08-05T13:20:25.283Z,101336.00
2022-08-05T13:22:58.203Z,101331.00
2022-08-05T13:25:51.721Z,101333.00
2022-08-05T13:28:06.564Z,101326.00
2022-08-05T13:30:39.655Z,101326.00
2022-08-05T13:34:20.209Z,101328.00
2022-08-05T13:35:51.464Z,101319.00
2022-08-05T13:38:30.517Z,101316.00
2022-08-05T13:40:55.564Z,101317.00
2022-08-05T13:43:44.330Z,101310.00
2022-08-05T13:46:02.498Z,101301.00
2022-08-05T13:48:57.473Z,101288.00
2022-08-05T13:51:12.810Z,101273.00
2022-08-05T13:53:47.772Z,101271.00
2022-08-05T13:56:25.185Z,101276.00
2022-08-05T13:58:58.214Z,101269.00
2022-08-05T14:01:44.154Z,101269.00
2022-08-05T14:04:26.702Z,101268.00
2022-08-05T14:06:58.758Z,101241.00
2022-08-05T14:09:32.143Z,101235.00
2022-08-05T14:12:17.618Z,101246.00
2022-08-05T14:14:39.417Z,101247.00
2022-08-05T14:17:17.860Z,101247.00
2022-08-05T14:19:56.924Z,101233.00
2022-08-05T14:22:30.358Z,101224.00
2022-08-05T14:25:06.316Z,101208.00
2022-08-05T14:27:37.362Z,101212.00
2022-08-05T14:30:19.996Z,101202.00
2022-08-05T14:32:46.086Z,101203.00
2022-08-05T14:35:20.855Z,101200.00
2022-08-05T14:37:55.388Z,101202.00
2022-08-05T14:40:27.363Z,101197.00
2022-08-05T14:43:00.340Z,101203.00
2022-08-05T14:45:37.853Z,101202.00
2022-08-05T14:48:10.763Z,101220.00
2022-08-05T14:51:08.411Z,101233.00
2022-08-05T14:53:44.624Z,101242.00
2022-08-05T14:56:15.671Z,101247.00
2022-08-05T14:58:53.249Z,101237.00
2022-08-05T15:01:48.751Z,101233.00
2022-08-05T15:03:58.445Z,101233.00
2022-08-05T15:06:32.051Z,101230.00
2022-08-05T15:09:05.100Z,101233.00
2022-08-05T15:11:51.597Z,101233.00
2022-08-05T15:14:33.183Z,101228.00
2022-08-05T15:16:47.718Z,101227.00
2022-08-05T15:19:23.895Z,101224.00
2022-08-05T15:21:55.635Z,101222.00
2022-08-05T15:24:29.535Z,101224.00
2022-08-05T15:27:02.383Z,101233.00
2022-08-05T15:29:42.121Z,101230.00
2022-08-05T15:32:10.932Z,101227.00
2022-08-05T15:34:44.492Z,101212.00
2022-08-05T15:37:20.659Z,101216.00
2022-08-05T15:41:01.991Z,101199.00
2022-08-05T15:42:53.705Z,101191.00
2022-08-05T15:45:06.086Z,101188.00
2022-08-05T15:47:38.965Z,101177.00
2022-08-05T15:50:15.403Z,101165.00
2022-08-05T15:52:53.013Z,101166.00
2022-08-05T15:55:24.795Z,101163.00
2022-08-05T15:57:55.620Z,101165.00
2022-08-05T16:00:51.052Z,101177.00
2022-08-05T16:03:04.265Z,101181.00
2022-08-05T16:05:38.952Z,101188.00
2022-08-05T16:08:12.109Z,101194.00
2022-08-05T16:10:46.277Z,101193.00
2022-08-05T16:13:23.291Z,101181.00
2022-08-05T16:15:54.932Z,101185.00
2022-08-05T16:18:29.230Z,101171.00
2022-08-05T16:21:04.295Z,101166.00
2022-08-05T16:23:54.697Z,101161.00
2022-08-05T16:26:17.214Z,101160.00
2022-08-05T16:28:51.393Z,101153.00
2022-08-05T16:31:25.463Z,101162.00
2022-08-05T16:33:58.270Z,101161.00
2022-08-05T16:36:36.780Z,101145.00
2022-08-05T16:39:11.192Z,101143.00
2022-08-05T16:42:14.141Z,101150.00
2022-08-05T16:44:21.123Z,101149.00
2022-08-05T16:46:55.674Z,101146.00
2022-08-05T16:49:33.389Z,101138.00
2022-08-05T16:52:06.351Z,101135.00
2022-08-05T16:54:39.347Z,101139.00
2022-08-05T16:57:22.454Z,101145.00
2022-08-05T17:00:03.131Z,101158.00
2022-08-05T17:02:26.402Z,101154.00
2022-08-05T17:05:00.186Z,101147.00
2022-08-05T17:07:39.062Z,101147.00
2022-08-05T17:10:07.735Z,101145.00
2022-08-05T17:12:50.426Z,101129.00
2022-08-05T17:15:19.650Z,101133.00
2022-08-05T17:17:54.810Z,101125.00
2022-08-05T17:20:26.723Z,101123.00
2022-08-05T17:22:59.706Z,101114.00
2022-08-05T17:25:39.850Z,101114.00
2022-08-05T17:28:06.854Z,101125.00
2022-08-05T17:30:50.770Z,101125.00
2022-08-05T17:33:15.425Z,101122.00
2022-08-05T17:36:08.396Z,101122.00
2022-08-05T17:38:26.640Z,101127.00
2022-08-05T17:40:59.521Z,101128.00
2022-08-05T17:43:46.753Z,101127.00
2022-08-05T17:46:11.000Z,101131.00
2022-08-05T17:48:44.915Z,101142.00
2022-08-05T17:51:21.614Z,101157.00
2022-08-05T17:53:54.494Z,101155.00
2022-08-05T17:56:28.377Z,101164.00
2022-08-05T17:59:00.462Z,101155.00
2022-08-05T18:01:49.589Z,101161.00
2022-08-05T18:04:07.863Z,101157.00
2022-08-05T18:06:41.687Z,101164.00
2022-08-05T18:09:15.721Z,101160.00
2022-08-05T18:11:52.391Z,101162.00
2022-08-05T18:14:22.448Z,101164.00
2022-08-05T18:16:55.280Z,101154.00
2022-08-05T18:19:28.734Z,101148.00
2022-08-05T18:22:11.328Z,101155.00
2022-08-05T18:24:39.930Z,101155.00
2022-08-05T18:27:18.935Z,101160.00
2022-08-05T18:29:54.517Z,101171.00
2022-08-05T18:32:28.158Z,101171.00
2022-08-05T18:35:01.265Z,101164.00
2022-08-05T18:37:40.288Z,101155.00
2022-08-05T18:40:57.663Z,101162.00
2022-08-05T18:42:43.407Z,101172.00
2022-08-05T18:45:17.506Z,101166.00
2022-08-05T18:47:56.807Z,101165.00
2022-08-05T18:50:47.184Z,101164.00
2022-08-05T18:53:24.733Z,101164.00
2022-08-05T18:55:54.219Z,101167.00
2022-08-05T18:58:28.855Z,101169.00
2022-08-05T19:01:01.372Z,101171.00
2022-08-05T19:03:55.698Z,101168.00
2022-08-05T19:06:22.017Z,101159.00
2022-08-05T19:08:46.217Z,101144.00
2022-08-05T19:11:27.999Z,101147.00
2022-08-05T19:14:01.825Z,101144.00
2022-08-05T19:16:29.398Z,101149.00
2022-08-05T19:19:02.358Z,101139.00
2022-08-05T19:21:36.388Z,101144.00
2022-08-05T19:24:12.537Z,101132.00
2022-08-05T19:26:55.166Z,101138.00
2022-08-05T19:29:18.972Z,101125.00
2022-08-05T19:31:51.968Z,101125.00
2022-08-05T19:34:24.792Z,101135.00
2022-08-05T19:36:58.063Z,101144.00
2022-08-05T19:39:32.008Z,101144.00
2022-08-05T19:42:09.193Z,101144.00
2022-08-05T19:44:45.199Z,101149.00
2022-08-05T19:47:16.125Z,101157.00
2022-08-05T19:49:51.579Z,101164.00
2022-08-05T19:52:30.907Z,101160.00
2022-08-05T19:55:07.303Z,101148.00
2022-08-05T19:57:49.271Z,101150.00
2022-08-05T20:00:12.735Z,101149.00
2022-08-05T20:02:45.927Z,101159.00
2022-08-05T20:05:24.484Z,101160.00
2022-08-05T20:07:59.165Z,101159.00
2022-08-05T20:10:31.777Z,101165.00
2022-08-05T20:13:05.751Z,101160.00
2022-08-05T20:15:52.598Z,101164.00
2022-08-05T20:18:32.599Z,101164.00
2022-08-05T20:20:55.877Z,101164.00
2022-08-05T20:23:40.206Z,101164.00
2022-08-05T20:26:06.125Z,101160.00
2022-08-05T20:28:39.274Z,101157.00
2022-08-05T20:31:13.318Z,101164.00
2022-08-05T20:33:46.385Z,101163.00
2022-08-05T20:36:20.692Z,101164.00
2022-08-05T20:38:58.065Z,101171.00
2022-08-05T20:41:44.580Z,101166.00
2022-08-05T20:44:16.937Z,101170.00
2022-08-05T20:46:37.330Z,101173.00
2022-08-05T20:49:10.546Z,101173.00
2022-08-05T20:51:44.698Z,101179.00
2022-08-05T20:54:18.960Z,101174.00
2022-08-05T20:56:52.113Z,101177.00
2022-08-05T20:59:46.112Z,101169.00
2022-08-05T21:02:01.009Z,101173.00
2022-08-05T21:04:39.212Z,101177.00
2022-08-05T21:07:12.376Z,101167.00
2022-08-05T21:09:53.588Z,101167.00
2022-08-05T21:12:20.637Z,101167.00
2022-08-05T21:14:57.918Z,101178.00
2022-08-05T21:17:31.706Z,101173.00
2022-08-05T21:20:09.730Z,101175.00
2022-08-05T21:22:40.462Z,101182.00
2022-08-05T21:25:14.289Z,101179.00
2022-08-05T21:27:47.655Z,101174.00
2022-08-05T21:30:26.076Z,101175.00
2022-08-05T21:32:59.586Z,101171.00
2022-08-05T21:35:43.699Z,101176.00
2022-08-05T21:38:07.521Z,101175.00
2022-08-05T21:40:41.533Z,101174.00
2022-08-05T21:43:23.947Z,101184.00
2022-08-05T21:45:56.817Z,101184.00
2022-08-05T21:48:23.454Z,101188.00
2022-08-05T21:50:57.502Z,101185.00
2022-08-05T21:53:30.530Z,101177.00
2022-08-05T21:56:16.233Z,101184.00
2022-08-05T21:58:42.170Z,101173.00
2022-08-05T22:01:23.893Z,101152.00
2022-08-05T22:03:53.201Z,101147.00
2022-08-05T22:06:35.601Z,101134.00
2022-08-05T22:09:01.865Z,101138.00
2022-08-05T22:11:40.014Z,101132.00
2022-08-05T22:14:33.066Z,101126.00
2022-08-05T22:16:51.804Z,101126.00
2022-08-05T22:20:01.888Z,101135.00
2022-08-05T22:21:58.246Z,101129.00
2022-08-05T22:24:52.213Z,101127.00
2022-08-05T22:28:08.497Z,101133.00
2022-08-05T22:30:17.161Z,101117.00
2022-08-05T22:32:50.222Z,101135.00
2022-08-05T22:35:23.243Z,101134.00
2022-08-05T22:37:58.789Z,101122.00
2022-08-05T22:40:30.795Z,101119.00
2022-08-05T22:43:04.029Z,101111.00
2022-08-05T22:45:37.939Z,101110.00
2022-08-05T22:48:12.633Z,101104.00
2022-08-05T22:50:46.701Z,101108.00
2022-08-05T22:53:21.217Z,101106.00
2022-08-05T22:55:57.360Z,101108.00
2022-08-05T22:58:29.058Z,101087.00
2022-08-05T23:01:02.190Z,101086.00
2022-08-05T23:03:58.234Z,101066.00
2022-08-05T23:06:10.248Z,101057.00
2022-08-05T23:08:43.699Z,101058.00
2022-08-05T23:11:17.734Z,101057.00
2022-08-05T23:13:51.813Z,101065.00
2022-08-05T23:16:33.644Z,101076.00
2022-08-05T23:19:00.310Z,101061.00
2022-08-05T23:21:43.042Z,101053.00
2022-08-05T23:24:13.030Z,101054.00
2022-08-05T23:26:45.798Z,101046.00
2022-08-05T23:29:19.867Z,101048.00
2022-08-05T23:31:53.618Z,101046.00
2022-08-05T23:34:26.661Z,101034.00
2022-08-05T23:36:59.500Z,101037.00
2022-08-05T23:39:53.724Z,101032.00
2022-08-05T23:42:14.291Z,101031.00
2022-08-05T23:44:44.208Z,101034.00
2022-08-05T23:47:18.147Z,101045.00
2022-08-05T23:49:50.901Z,101044.00
2022-08-05T23:52:35.816Z,101043.00
2022-08-05T23:55:11.137Z,101043.00
2022-08-05T23:57:51.302Z,101036.00
